PHKO METAR and TAF weather

Enter ICAO airport designator
Station Type Date Time Source
PHKO METAR 2019/06/19 05:53 UTC NOAA

PHKO 190553Z 00000KT 10SM OVC046 27/22 A2995 RMK AO2 SLP143 T02720217 10289 20267 51013 $


Station Type Date Time Source
PHKO Decoded METAR 2019/06/19 05:53 UTC NOAA

KONA INTERNATIONAL AIRPORT, HI, United States (PHKO) 19-44N 156-03W 27M
Jun 19, 2019 - 01:53 AM EDT / 2019.06.19 0553 UTC
Wind: Calm:0
Visibility: 10 mile(s):0
Sky conditions: overcast
Temperature: 81.0 F (27.2 C)
Dew Point: 71.1 F (21.7 C)
Relative Humidity: 71%
Pressure (altimeter): 29.95 in. Hg (1014 hPa)
Pressure tendency: 0.04 inches (1.3 hPa) higher than three hours ago
ob: PHKO 190553Z 00000KT 10SM OVC046 27/22 A2995 RMK AO2 SLP143 T02720217 10289 20267 51013
cycle: 6

Station Type Date Time Source
PHKO TAF 2019/06/19 06:42 UTC NOAA

TAF PHKO 190539Z 1906/2006 VRB05KT P6SM BKN050
FM192000 23009KT P6SM SCT050
FM200500 06008KT P6SM FEW030 SCT060

Example: see airport list